Ana Sayfa
METAR-TAF:

METAR-TAF

Havaalanları :

Hartford, Connecticut, Amerika Birleşik Devletleri

Enlem: 41-44-06N, Boylam: 072-39-06W, yükseklik: 5 m

Güncel hava durumu gözlemi

Rapor saat 22:53 UTC de 18 dakika önce yapıldı.
Rüzgar batı/güneybatıdan 4 kt
Sıcaklık 6°C
Nem 52%
Basınç 1007 hPa
Görüş mesafesi: 16.1 km
6000 ft yükseklikte az bulutlu

METAR: KHFD 262253Z 24004KT 10SM FEW060 06/M03 A2973 RMK AO2 SLP065 T00561028

Saat: 18:11 (23:11 UTC)


TAF: eksik

4.000'den fazla havaalanı için hava durumu gözlemleri ve tahminleri (METAR ve TAF raporları).

Kullanılabilir istasyonlar harita üzerinde sarı ve kırmızı noktalarla gösterilir.

İstasyonun adını görmek için fareyi noktanın üzerinde gezdirin.

Sonrasında hava gözlem ve tahminlerini görmek için tıklayın.

Haritayı değiştirmek için: yaklaştırmak için siyah artı işaretli yeşil düğmeye ve uzaklaştırmak için de eksi işaretli düğmeye hızla tıklayın; bitişik haritalar için yeşil okları kullanın.


METAR-TAF: